Time;durP1;ratioP1;P1;durP2;ratioP2;P2;SDS_P1;SDS_P2;PMS_P1;PMS_P2;Temp;Humidity;BMP_temperature;BMP_pressure;BME280_temperature;BME280_humidity;BME280_pressure;Samples;Min_cycle;Max_cycle;Signal;HPM_P1;HPM_P2
2022/05/26 00:02:48;;;;;;;4.38;2.58;;;;;;;;;;10380498;28;20026;-48
2022/05/26 00:07:49;;;;;;;5.25;2.72;;;;;;;;;;10382445;28;20029;-48
2022/05/26 00:12:50;;;;;;;5.43;2.90;;;;;;;;;;10416276;28;20473;-54
2022/05/26 00:17:50;;;;;;;4.30;2.47;;;;;;;;;;10407922;28;20489;-56
2022/05/26 00:22:51;;;;;;;5.18;2.65;;;;;;;;;;10375196;28;20026;-55
2022/05/26 00:27:51;;;;;;;6.20;2.58;;;;;;;;;;10375891;28;20017;-55
2022/05/26 00:32:52;;;;;;;3.35;2.30;;;;;;;;;;10403953;28;20049;-54
2022/05/26 00:37:53;;;;;;;5.03;2.67;;;;;;;;;;10400605;28;20078;-51
2022/05/26 00:42:53;;;;;;;3.63;2.38;;;;;;;;;;10375450;28;20034;-52
2022/05/26 00:47:54;;;;;;;3.72;2.30;;;;;;;;;;10397462;28;20029;-53
2022/05/26 00:53:25;;;;;;;3.47;2.28;;;;;;;;;;10411815;28;20120;-55
2022/05/26 00:58:30;;;;;;;3.55;2.10;;;;;;;;;;10384693;28;20505;-52
2022/05/26 01:03:42;;;;;;;3.42;2.30;;;;;;;;;;10406680;28;20104;-54
2022/05/26 01:08:51;;;;;;;3.78;2.00;;;;;;;;;;10410241;28;20101;-52
2022/05/26 01:14:41;;;;;;;2.25;2.05;;;;;;;;;;10356112;28;20470;-48
2022/05/26 01:19:49;;;;;;;2.35;1.98;;;;;;;;;;10368378;28;20038;-48
2022/05/26 01:25:35;;;;;;;3.33;1.88;;;;;;;;;;10372651;28;20042;-48
2022/05/26 01:31:15;;;;;;;2.22;1.88;;;;;;;;;;10385496;28;20382;-48
2022/05/26 01:36:48;;;;;;;5.05;2.00;;;;;;;;;;10398180;28;20049;-48
2022/05/26 01:42:08;;;;;;;2.97;1.80;;;;;;;;;;10386646;28;20030;-50
2022/05/26 01:48:02;;;;;;;6.97;2.30;;;;;;;;;;10385805;28;20116;-48
2022/05/26 01:53:26;;;;;;;5.18;2.00;;;;;;;;;;10321655;28;20122;-51
2022/05/26 01:58:52;;;;;;;2.15;1.73;;;;;;;;;;10316166;28;20125;-51
2022/05/26 02:03:55;;;;;;;3.05;2.08;;;;;;;;;;10345491;28;20053;-47
2022/05/26 02:09:24;;;;;;;5.85;1.70;;;;;;;;;;10339477;28;20876;-50
2022/05/26 02:14:40;;;;;;;2.30;2.08;;;;;;;;;;10313357;28;20026;-50
2022/05/26 02:19:50;;;;;;;5.80;2.13;;;;;;;;;;10351517;28;20091;-53
2022/05/26 02:25:10;;;;;;;4.60;1.52;;;;;;;;;;10370372;28;20033;-48
2022/05/26 02:30:12;;;;;;;3.20;2.05;;;;;;;;;;10371198;28;20038;-48
2022/05/26 02:35:26;;;;;;;2.53;1.52;;;;;;;;;;10369910;28;20052;-54
2022/05/26 02:40:27;;;;;;;2.95;1.60;;;;;;;;;;10371002;28;20616;-53
2022/05/26 02:45:46;;;;;;;3.63;1.88;;;;;;;;;;10373581;28;20025;-53
2022/05/26 02:51:24;;;;;;;4.88;1.55;;;;;;;;;;10354239;28;20076;-50
2022/05/26 02:56:45;;;;;;;2.67;1.40;;;;;;;;;;10370335;28;20034;-49
2022/05/26 03:02:07;;;;;;;2.25;1.67;;;;;;;;;;10369230;28;20028;-52
2022/05/26 03:07:13;;;;;;;2.10;1.70;;;;;;;;;;10371462;28;20033;-50
2022/05/26 03:12:31;;;;;;;6.80;1.85;;;;;;;;;;10392350;28;20053;-51
2022/05/26 03:17:31;;;;;;;2.53;1.60;;;;;;;;;;10400486;28;20037;-47
2022/05/26 03:22:32;;;;;;;3.05;1.63;;;;;;;;;;10385374;28;20029;-47
2022/05/26 03:27:33;;;;;;;3.10;1.42;;;;;;;;;;10368868;28;20374;-47
2022/05/26 03:32:34;;;;;;;1.80;1.40;;;;;;;;;;10368279;28;20493;-46
2022/05/26 03:42:54;;;;;;;1.48;1.38;;;;;;;;;;10371071;28;20526;-47
2022/05/26 03:47:55;;;;;;;2.72;1.50;;;;;;;;;;10370649;28;20022;-48
2022/05/26 03:52:56;;;;;;;3.42;1.52;;;;;;;;;;10408748;28;20091;-48
2022/05/26 03:57:59;;;;;;;7.25;1.73;;;;;;;;;;10378418;28;20034;-49
2022/05/26 04:02:59;;;;;;;4.32;1.60;;;;;;;;;;10367637;28;20046;-55
2022/05/26 04:08:00;;;;;;;4.07;1.40;;;;;;;;;;10368675;28;20525;-53
2022/05/26 04:13:01;;;;;;;2.03;1.45;;;;;;;;;;10367484;28;20030;-52
2022/05/26 04:18:01;;;;;;;4.88;1.27;;;;;;;;;;10368156;28;20034;-54
2022/05/26 04:23:02;;;;;;;5.18;1.58;;;;;;;;;;10367392;28;20037;-55
2022/05/26 04:28:02;;;;;;;2.08;1.52;;;;;;;;;;10404558;28;20469;-52
2022/05/26 04:33:03;;;;;;;3.80;1.60;;;;;;;;;;10407978;28;20025;-54
2022/05/26 04:38:04;;;;;;;2.08;1.40;;;;;;;;;;10409269;28;20044;-54
2022/05/26 04:43:04;;;;;;;4.05;1.30;;;;;;;;;;10415284;28;20113;-52
2022/05/26 04:48:05;;;;;;;2.15;1.70;;;;;;;;;;10385343;28;20037;-54
2022/05/26 04:53:07;;;;;;;8.25;2.13;;;;;;;;;;10373171;28;20030;-54
2022/05/26 04:58:08;;;;;;;2.42;1.40;;;;;;;;;;10385777;28;20025;-55
2022/05/26 05:03:08;;;;;;;2.05;1.50;;;;;;;;;;10358283;28;20025;-51
2022/05/26 05:08:09;;;;;;;4.78;1.80;;;;;;;;;;10337791;28;20038;-52
2022/05/26 05:13:10;;;;;;;3.60;1.50;;;;;;;;;;10332837;28;20045;-52
2022/05/26 05:18:11;;;;;;;1.77;1.30;;;;;;;;;;10337452;28;20489;-54
2022/05/26 05:23:13;;;;;;;4.57;1.70;;;;;;;;;;10370450;28;20034;-54
2022/05/26 05:28:26;;;;;;;3.58;1.70;;;;;;;;;;10330616;28;20038;-50
2022/05/26 05:33:36;;;;;;;10.43;3.30;;;;;;;;;;10350599;28;20045;-51
2022/05/26 05:38:39;;;;;;;7.70;4.13;;;;;;;;;;10369370;28;20058;-48
2022/05/26 05:43:40;;;;;;;13.32;3.63;;;;;;;;;;10334115;28;20087;-47
2022/05/26 05:48:44;;;;;;;11.55;4.43;;;;;;;;;;10336302;28;20409;-49
2022/05/26 05:53:45;;;;;;;13.88;4.55;;;;;;;;;;10361776;28;20079;-51
2022/05/26 05:58:45;;;;;;;24.67;5.68;;;;;;;;;;10341880;28;20545;-48
2022/05/26 06:03:46;;;;;;;20.25;4.82;;;;;;;;;;10364654;28;20482;-49
2022/05/26 06:08:47;;;;;;;22.63;4.80;;;;;;;;;;10370756;28;20482;-48
2022/05/26 06:13:47;;;;;;;10.45;4.55;;;;;;;;;;10370879;28;20033;-48
2022/05/26 06:18:50;;;;;;;20.08;4.22;;;;;;;;;;10344984;28;20327;-47
2022/05/26 06:23:55;;;;;;;14.95;4.13;;;;;;;;;;10329838;28;20030;-49
2022/05/26 06:39:35;;;;;;;16.52;4.70;;;;;;;;;;10329431;28;20042;-48
2022/05/26 06:44:44;;;;;;;12.23;4.00;;;;;;;;;;10329101;28;20026;-48
2022/05/26 06:49:45;;;;;;;15.07;4.88;;;;;;;;;;10359819;28;20066;-49
2022/05/26 06:54:47;;;;;;;17.25;4.90;;;;;;;;;;10369633;28;20488;-51
2022/05/26 06:59:47;;;;;;;7.65;3.88;;;;;;;;;;10368546;28;20018;-52
2022/05/26 07:04:48;;;;;;;13.07;3.97;;;;;;;;;;10369577;28;20382;-53
2022/05/26 07:09:54;;;;;;;10.45;4.53;;;;;;;;;;10368804;28;20196;-49
2022/05/26 07:14:55;;;;;;;14.18;3.97;;;;;;;;;;10369005;28;20026;-53
2022/05/26 07:19:56;;;;;;;17.52;3.63;;;;;;;;;;10368897;28;20038;-51
2022/05/26 07:24:56;;;;;;;12.20;3.78;;;;;;;;;;10369370;28;20557;-53
2022/05/26 07:29:57;;;;;;;12.90;4.00;;;;;;;;;;10368527;28;20121;-48
2022/05/26 07:34:57;;;;;;;13.90;3.92;;;;;;;;;;10368472;28;20194;-47
2022/05/26 07:45:19;;;;;;;10.55;3.63;;;;;;;;;;10368405;28;20022;-54
2022/05/26 07:50:20;;;;;;;12.63;3.97;;;;;;;;;;10367999;28;20180;-51
2022/05/26 07:55:21;;;;;;;7.75;3.72;;;;;;;;;;10368132;28;20086;-50
2022/05/26 08:00:22;;;;;;;15.50;4.30;;;;;;;;;;10367622;28;20458;-54
2022/05/26 08:05:22;;;;;;;16.10;4.55;;;;;;;;;;10367471;28;20175;-51
2022/05/26 08:10:23;;;;;;;14.68;4.15;;;;;;;;;;10368477;28;20036;-53
2022/05/26 08:15:24;;;;;;;10.90;4.65;;;;;;;;;;10375730;28;20034;-52
2022/05/26 08:20:25;;;;;;;12.48;4.97;;;;;;;;;;10375473;28;20026;-54
2022/05/26 08:25:26;;;;;;;12.38;4.55;;;;;;;;;;10375070;28;20057;-52
2022/05/26 08:30:27;;;;;;;9.98;4.82;;;;;;;;;;10374926;28;20157;-51
2022/05/26 08:35:28;;;;;;;11.98;5.10;;;;;;;;;;10374591;28;20050;-52
2022/05/26 08:40:49;;;;;;;13.67;5.07;;;;;;;;;;10374536;28;20030;-53
2022/05/26 08:45:53;;;;;;;11.15;5.10;;;;;;;;;;10372715;28;20439;-51
2022/05/26 08:50:54;;;;;;;10.27;5.28;;;;;;;;;;10374420;28;20033;-54
2022/05/26 08:55:56;;;;;;;13.68;5.30;;;;;;;;;;10373866;28;20045;-52
2022/05/26 09:00:57;;;;;;;9.70;5.10;;;;;;;;;;10374079;28;20601;-52
2022/05/26 09:06:09;;;;;;;15.30;5.13;;;;;;;;;;10356349;28;20280;-53
2022/05/26 09:16:43;;;;;;;15.18;5.72;;;;;;;;;;10372999;28;20021;-54
2022/05/26 09:21:48;;;;;;;11.60;5.95;;;;;;;;;;10354953;28;20363;-49
2022/05/26 09:27:03;;;;;;;15.73;5.65;;;;;;;;;;10373421;28;20458;-54
2022/05/26 09:32:13;;;;;;;14.13;6.15;;;;;;;;;;10372354;28;20025;-53
2022/05/26 09:37:14;;;;;;;12.82;5.60;;;;;;;;;;10355744;28;20057;-49
2022/05/26 09:42:14;;;;;;;11.35;5.47;;;;;;;;;;10372483;28;20022;-52
2022/05/26 09:47:37;;;;;;;16.70;5.87;;;;;;;;;;10371721;28;20032;-49
2022/05/26 09:52:49;;;;;;;15.30;5.78;;;;;;;;;;10370470;28;20467;-51
2022/05/26 09:58:09;;;;;;;11.10;5.65;;;;;;;;;;10371710;28;20481;-52
2022/05/26 10:03:26;;;;;;;14.93;6.07;;;;;;;;;;10370790;28;20169;-50
2022/05/26 10:08:40;;;;;;;15.50;6.53;;;;;;;;;;10371266;28;20104;-52
2022/05/26 10:14:11;;;;;;;9.18;5.07;;;;;;;;;;10371931;28;20037;-53
2022/05/26 10:19:30;;;;;;;12.57;5.65;;;;;;;;;;10370805;28;20355;-52
2022/05/26 10:25:00;;;;;;;9.75;5.10;;;;;;;;;;10366705;28;20030;-49
2022/05/26 10:30:42;;;;;;;15.02;5.32;;;;;;;;;;10352010;28;20042;-47
2022/05/26 10:35:49;;;;;;;9.73;4.95;;;;;;;;;;10367677;28;20060;-49
2022/05/26 10:41:23;;;;;;;11.63;4.60;;;;;;;;;;10371259;28;20026;-47
2022/05/26 10:46:28;;;;;;;16.05;4.75;;;;;;;;;;10367775;28;20049;-47
2022/05/26 10:51:36;;;;;;;12.60;5.47;;;;;;;;;;10367419;28;20025;-47
2022/05/26 10:56:54;;;;;;;11.02;5.10;;;;;;;;;;10367603;28;20117;-47
2022/05/26 11:01:54;;;;;;;;;;;;;;;;;;10373265;28;20034;-47
2022/05/26 11:07:02;;;;;;;11.18;4.60;;;;;;;;;;10370330;28;19978;-47
2022/05/26 11:12:11;;;;;;;15.55;5.07;;;;;;;;;;10369671;28;20444;-47
2022/05/26 11:17:22;;;;;;;10.55;4.90;;;;;;;;;;10384179;28;20467;-47
2022/05/26 11:22:23;;;;;;;12.45;4.65;;;;;;;;;;10371018;28;20060;-48
2022/05/26 11:27:35;;;;;;;15.15;5.18;;;;;;;;;;10368322;28;20473;-54
2022/05/26 11:38:47;;;;;;;7.65;4.78;;;;;;;;;;10365688;28;20053;-53
2022/05/26 11:44:09;;;;;;;9.63;4.63;;;;;;;;;;10375091;28;20409;-50
2022/05/26 11:49:31;;;;;;;14.50;4.72;;;;;;;;;;10390042;28;20038;-53
2022/05/26 11:54:58;;;;;;;11.50;4.97;;;;;;;;;;10365896;28;20026;-51
2022/05/26 12:00:14;;;;;;;;;;;;;;;;;;10392038;28;20044;-52
2022/05/26 12:05:30;;;;;;;12.63;5.00;;;;;;;;;;10393467;28;19923;-53
2022/05/26 12:10:49;;;;;;;10.98;4.78;;;;;;;;;;10359306;28;20026;-53
2022/05/26 12:16:08;;;;;;;13.43;4.85;;;;;;;;;;10359293;28;20025;-50
2022/05/26 12:21:35;;;;;;;12.93;5.35;;;;;;;;;;10363310;28;20401;-48
2022/05/26 12:26:54;;;;;;;9.70;4.83;;;;;;;;;;10369278;28;20443;-50
2022/05/26 12:32:20;;;;;;;13.63;4.93;;;;;;;;;;10346673;28;20038;-49
2022/05/26 12:37:52;;;;;;;12.07;4.78;;;;;;;;;;10385342;28;20125;-50
2022/05/26 12:43:40;;;;;;;6.65;4.10;;;;;;;;;;10384890;28;20037;-51
2022/05/26 12:49:08;;;;;;;15.73;5.57;;;;;;;;;;10376424;28;20398;-49
2022/05/26 12:54:17;;;;;;;9.45;4.97;;;;;;;;;;10383303;28;20112;-47
2022/05/26 12:59:24;;;;;;;21.08;4.97;;;;;;;;;;10416805;28;20096;-53
2022/05/26 13:04:32;;;;;;;11.40;4.37;;;;;;;;;;10395763;28;20029;-53
2022/05/26 13:09:46;;;;;;;13.15;4.45;;;;;;;;;;10395781;28;20053;-53
2022/05/26 13:14:57;;;;;;;9.73;4.85;;;;;;;;;;10397185;28;20034;-51
2022/05/26 13:20:00;;;;;;;10.50;4.90;;;;;;;;;;10401352;28;20088;-52
2022/05/26 13:25:10;;;;;;;7.45;4.40;;;;;;;;;;10373891;28;20436;-53
2022/05/26 13:35:44;;;;;;;9.40;4.30;;;;;;;;;;10342344;28;20039;-50
2022/05/26 13:40:45;;;;;;;19.58;5.20;;;;;;;;;;10346906;28;20054;-59
2022/05/26 13:45:46;;;;;;;26.20;6.07;;;;;;;;;;10381050;28;20083;-47
2022/05/26 13:50:53;;;;;;;29.55;4.85;;;;;;;;;;10373376;28;20034;-52
2022/05/26 13:55:56;;;;;;;49.33;5.82;;;;;;;;;;10388285;28;20473;-52
2022/05/26 14:00:59;;;;;;;56.67;6.50;;;;;;;;;;10381265;28;20061;-52
2022/05/26 14:06:22;;;;;;;36.30;5.82;;;;;;;;;;10375771;28;20024;-50
2022/05/26 14:11:41;;;;;;;31.63;5.07;;;;;;;;;;10346291;28;20127;-58
2022/05/26 14:16:41;;;;;;;27.40;5.63;;;;;;;;;;10370870;28;20033;-57
2022/05/26 14:21:51;;;;;;;39.83;6.38;;;;;;;;;;10352851;28;20021;-57
2022/05/26 14:27:22;;;;;;;36.30;5.40;;;;;;;;;;10353568;28;20036;-58
2022/05/26 14:32:35;;;;;;;22.40;5.32;;;;;;;;;;10375556;28;20045;-58
2022/05/26 14:37:36;;;;;;;31.85;5.80;;;;;;;;;;10349145;28;20149;-57
2022/05/26 14:42:41;;;;;;;17.35;5.18;;;;;;;;;;10336223;28;20026;-57
2022/05/26 14:47:42;;;;;;;21.75;5.05;;;;;;;;;;10340555;28;20025;-57
2022/05/26 14:52:45;;;;;;;13.23;4.90;;;;;;;;;;10371442;28;20026;-58
2022/05/26 14:57:46;;;;;;;17.13;4.93;;;;;;;;;;10409706;28;20022;-57
2022/05/26 15:02:47;;;;;;;18.35;5.30;;;;;;;;;;10408620;28;20084;-57
2022/05/26 15:07:48;;;;;;;15.02;4.78;;;;;;;;;;10407882;28;20056;-58
2022/05/26 15:12:49;;;;;;;16.45;4.82;;;;;;;;;;10407939;28;20033;-57
2022/05/26 15:17:49;;;;;;;7.82;4.43;;;;;;;;;;10390953;28;20030;-58
2022/05/26 15:22:50;;;;;;;12.95;4.82;;;;;;;;;;10362288;28;20497;-58
2022/05/26 15:27:50;;;;;;;15.80;5.27;;;;;;;;;;10326669;28;20033;-58
2022/05/26 15:32:50;;;;;;;10.23;5.10;;;;;;;;;;10333772;28;20478;-57
2022/05/26 15:37:54;;;;;;;14.63;4.45;;;;;;;;;;10367736;28;20512;-58
2022/05/26 15:42:55;;;;;;;9.57;4.93;;;;;;;;;;10386331;28;20108;-57
2022/05/26 15:47:57;;;;;;;12.18;4.75;;;;;;;;;;10392903;28;20030;-57
2022/05/26 15:53:00;;;;;;;9.93;4.60;;;;;;;;;;10368566;28;20033;-57
2022/05/26 15:58:01;;;;;;;10.63;4.30;;;;;;;;;;10367519;28;20355;-57
2022/05/26 16:03:01;;;;;;;11.00;4.68;;;;;;;;;;10368471;28;20030;-57
2022/05/26 16:08:02;;;;;;;12.87;5.17;;;;;;;;;;10367264;28;20037;-57
2022/05/26 16:13:04;;;;;;;11.02;4.70;;;;;;;;;;10368374;28;20467;-57
2022/05/26 16:18:04;;;;;;;11.00;5.00;;;;;;;;;;10368125;28;20375;-57
2022/05/26 16:23:07;;;;;;;10.55;4.30;;;;;;;;;;10361921;28;20026;-57
2022/05/26 16:28:07;;;;;;;8.50;4.57;;;;;;;;;;10366333;28;20033;-58
2022/05/26 16:33:08;;;;;;;13.98;5.38;;;;;;;;;;10395943;28;20033;-57
2022/05/26 16:38:11;;;;;;;8.57;4.93;;;;;;;;;;10361259;28;20038;-58
2022/05/26 16:43:12;;;;;;;6.93;4.18;;;;;;;;;;10356326;28;20451;-57
2022/05/26 16:48:12;;;;;;;11.68;5.03;;;;;;;;;;10375636;28;20029;-56
2022/05/26 16:53:13;;;;;;;9.48;4.68;;;;;;;;;;10403883;28;20180;-58
2022/05/26 16:58:16;;;;;;;7.78;4.43;;;;;;;;;;10364178;28;20029;-58
2022/05/26 17:03:17;;;;;;;8.68;4.90;;;;;;;;;;10373411;28;20458;-58
2022/05/26 17:08:20;;;;;;;11.02;4.90;;;;;;;;;;10399906;28;20049;-58
2022/05/26 17:24:00;;;;;;;11.07;4.68;;;;;;;;;;10382936;28;20033;-58
2022/05/26 17:29:01;;;;;;;8.30;4.55;;;;;;;;;;10387053;28;20034;-59
2022/05/26 17:34:03;;;;;;;8.77;4.37;;;;;;;;;;10369768;28;20032;-59
2022/05/26 17:39:06;;;;;;;6.75;3.97;;;;;;;;;;10376501;28;20499;-59
2022/05/26 17:44:15;;;;;;;6.47;4.15;;;;;;;;;;10370900;28;20034;-59
2022/05/26 17:49:21;;;;;;;8.32;4.03;;;;;;;;;;10384074;28;20470;-59
2022/05/26 17:54:28;;;;;;;6.97;4.47;;;;;;;;;;10368763;28;20112;-59
2022/05/26 18:04:49;;;;;;;6.90;4.47;;;;;;;;;;10367002;28;20037;-58
2022/05/26 18:09:49;;;;;;;9.27;4.18;;;;;;;;;;10370418;28;20049;-59
2022/05/26 18:14:50;;;;;;;9.13;4.55;;;;;;;;;;10375745;28;20033;-59
2022/05/26 18:19:53;;;;;;;10.67;5.10;;;;;;;;;;10391489;28;20034;-58
2022/05/26 18:24:54;;;;;;;10.95;4.80;;;;;;;;;;10341080;28;20463;-59
2022/05/26 18:29:54;;;;;;;11.23;4.97;;;;;;;;;;10410826;28;20040;-59
2022/05/26 18:35:00;;;;;;;13.05;4.60;;;;;;;;;;10409279;28;21023;-59
2022/05/26 18:40:01;;;;;;;13.15;4.93;;;;;;;;;;10393261;28;20024;-59
2022/05/26 18:45:01;;;;;;;9.27;4.47;;;;;;;;;;10410572;28;20113;-59
2022/05/26 18:50:03;;;;;;;8.17;4.20;;;;;;;;;;10378332;28;20041;-59
2022/05/26 18:55:09;;;;;;;8.15;4.10;;;;;;;;;;10369467;28;20452;-58
2022/05/26 19:00:12;;;;;;;8.63;4.80;;;;;;;;;;10370847;28;20038;-58
2022/05/26 19:05:13;;;;;;;15.23;4.85;;;;;;;;;;10368618;28;20054;-58
2022/05/26 19:10:18;;;;;;;12.73;5.05;;;;;;;;;;10335654;28;20042;-59
2022/05/26 19:15:19;;;;;;;7.93;4.47;;;;;;;;;;10388923;28;20084;-59
2022/05/26 19:20:19;;;;;;;12.70;4.32;;;;;;;;;;10369293;28;20371;-58
2022/05/26 19:25:20;;;;;;;9.82;4.50;;;;;;;;;;10371120;28;20034;-59
2022/05/26 19:30:21;;;;;;;8.15;3.83;;;;;;;;;;10368180;28;20034;-58
2022/05/26 19:35:23;;;;;;;13.48;4.10;;;;;;;;;;10383316;28;20041;-58
2022/05/26 19:40:23;;;;;;;9.45;4.32;;;;;;;;;;10402633;28;20033;-58
2022/05/26 19:45:23;;;;;;;11.13;4.20;;;;;;;;;;10345273;28;20482;-58
2022/05/26 19:50:25;;;;;;;12.63;5.10;;;;;;;;;;10333880;28;20471;-58
2022/05/26 19:55:26;;;;;;;14.98;4.53;;;;;;;;;;10326614;28;20478;-58
2022/05/26 20:00:29;;;;;;;7.47;4.10;;;;;;;;;;10382185;28;20033;-58
2022/05/26 20:05:33;;;;;;;8.85;4.05;;;;;;;;;;10371199;28;20113;-58
2022/05/26 20:10:33;;;;;;;6.95;3.97;;;;;;;;;;10389026;28;20038;-58
2022/05/26 20:15:34;;;;;;;8.20;4.10;;;;;;;;;;10368300;28;20030;-58
2022/05/26 20:20:35;;;;;;;12.35;4.18;;;;;;;;;;10346451;28;20519;-58
2022/05/26 20:25:41;;;;;;;9.73;4.30;;;;;;;;;;10337603;28;20080;-58
2022/05/26 20:30:41;;;;;;;7.72;3.70;;;;;;;;;;10331558;28;20466;-58
2022/05/26 20:35:42;;;;;;;11.10;5.07;;;;;;;;;;10342497;28;20402;-59
2022/05/26 20:40:43;;;;;;;8.45;4.15;;;;;;;;;;10333522;28;20571;-59
2022/05/26 20:45:47;;;;;;;16.80;4.57;;;;;;;;;;10369041;28;20474;-59
2022/05/26 20:50:48;;;;;;;13.93;4.43;;;;;;;;;;10371761;28;20127;-59
2022/05/26 20:55:52;;;;;;;15.20;4.72;;;;;;;;;;10372022;28;20107;-59
2022/05/26 21:00:53;;;;;;;8.63;4.45;;;;;;;;;;10357278;28;20030;-58
2022/05/26 21:05:54;;;;;;;12.77;5.07;;;;;;;;;;10333480;28;20412;-62
2022/05/26 21:10:54;;;;;;;24.17;7.47;;;;;;;;;;10333452;28;20092;-68
2022/05/26 21:15:55;;;;;;;18.07;7.33;;;;;;;;;;10331470;28;20032;-66
2022/05/26 21:20:55;;;;;;;20.25;8.00;;;;;;;;;;10347926;28;20456;-68
2022/05/26 21:25:56;;;;;;;27.45;8.75;;;;;;;;;;10380441;28;20034;-69
2022/05/26 21:31:04;;;;;;;20.25;9.13;;;;;;;;;;10385968;28;20034;-67
2022/05/26 21:36:04;;;;;;;14.53;8.40;;;;;;;;;;10381931;28;20122;-70
2022/05/26 21:41:06;;;;;;;26.30;9.32;;;;;;;;;;10393538;28;20041;-69
2022/05/26 21:46:10;;;;;;;16.50;9.27;;;;;;;;;;10376898;28;20076;-67
2022/05/26 21:51:15;;;;;;;24.38;9.50;;;;;;;;;;10376080;28;20050;-62
2022/05/26 21:56:15;;;;;;;20.83;9.70;;;;;;;;;;10383737;28;20040;-60
2022/05/26 22:01:18;;;;;;;22.60;10.40;;;;;;;;;;10371460;28;20577;-59
2022/05/26 22:11:46;;;;;;;19.75;10.30;;;;;;;;;;10366690;28;20033;-60
2022/05/26 22:16:49;;;;;;;20.95;10.48;;;;;;;;;;10368488;28;20026;-59
2022/05/26 22:22:13;;;;;;;19.45;10.63;;;;;;;;;;10357352;28;20022;-61
2022/05/26 22:27:16;;;;;;;19.92;9.60;;;;;;;;;;10351501;28;20355;-59
2022/05/26 22:32:21;;;;;;;24.75;10.63;;;;;;;;;;10390016;28;20042;-62
2022/05/26 22:37:22;;;;;;;26.38;10.30;;;;;;;;;;10408881;28;20100;-61
2022/05/26 22:42:26;;;;;;;19.25;9.70;;;;;;;;;;10381604;28;20111;-64
2022/05/26 22:47:30;;;;;;;13.63;8.50;;;;;;;;;;10375181;28;20037;-69
2022/05/26 22:52:30;;;;;;;20.80;8.85;;;;;;;;;;10359387;28;20478;-63
2022/05/26 22:57:35;;;;;;;18.33;8.07;;;;;;;;;;10370413;28;20022;-62
2022/05/26 23:02:40;;;;;;;22.23;7.25;;;;;;;;;;10345711;28;20470;-60
2022/05/26 23:07:40;;;;;;;16.45;6.93;;;;;;;;;;10370137;28;20030;-62
2022/05/26 23:12:41;;;;;;;13.45;7.30;;;;;;;;;;10401079;28;20392;-61
2022/05/26 23:17:42;;;;;;;11.95;6.68;;;;;;;;;;10399088;28;20534;-60
2022/05/26 23:22:43;;;;;;;16.38;6.57;;;;;;;;;;10369646;28;20084;-60
2022/05/26 23:27:43;;;;;;;18.60;6.28;;;;;;;;;;10370011;28;20030;-59
2022/05/26 23:32:44;;;;;;;17.47;6.10;;;;;;;;;;10409252;28;20045;-61
2022/05/26 23:37:45;;;;;;;20.93;6.17;;;;;;;;;;10406088;28;20573;-61
2022/05/26 23:48:04;;;;;;;13.57;5.63;;;;;;;;;;10368646;28;20498;-60
2022/05/26 23:53:05;;;;;;;11.20;5.07;;;;;;;;;;10368173;28;20030;-61
2022/05/26 23:58:05;;;;;;;10.45;4.82;;;;;;;;;;10383503;28;20040;-57
